createdAt,value
2023-02-04T00:00:18.320Z,78.12
2023-02-04T00:03:41.497Z,77.93
2023-02-04T00:06:44.652Z,78.09
2023-02-04T00:09:49.868Z,78.17
2023-02-04T00:12:53.082Z,78.35
2023-02-04T00:15:56.299Z,78.05
2023-02-04T00:18:59.618Z,78.21
2023-02-04T00:22:04.014Z,78.23
2023-02-04T00:25:07.829Z,78.18
2023-02-04T00:28:11.110Z,78.39
2023-02-04T00:31:14.402Z,78.11
2023-02-04T00:34:18.492Z,78.33
2023-02-04T00:37:22.402Z,77.94
2023-02-04T00:40:25.597Z,78.30
2023-02-04T00:43:28.819Z,78.26
2023-02-04T00:46:32.197Z,78.12
2023-02-04T00:49:35.462Z,78.32
2023-02-04T00:52:38.662Z,78.33
2023-02-04T00:55:42.170Z,78.33
2023-02-04T00:58:45.441Z,78.10
2023-02-04T01:01:48.674Z,78.35
2023-02-04T01:04:51.907Z,78.35
2023-02-04T01:07:55.149Z,78.39
2023-02-04T01:10:58.507Z,78.34
2023-02-04T01:14:02.691Z,78.23
2023-02-04T01:17:06.216Z,78.25
2023-02-04T01:20:10.776Z,77.99
2023-02-04T01:23:14.014Z,77.96
2023-02-04T01:26:19.086Z,77.82
2023-02-04T01:29:22.314Z,77.65
2023-02-04T01:32:27.223Z,77.81
2023-02-04T01:35:30.482Z,77.73
2023-02-04T01:38:34.066Z,77.71
2023-02-04T01:41:37.415Z,77.75
2023-02-04T01:44:40.973Z,77.71
2023-02-04T01:47:46.018Z,77.87
2023-02-04T01:50:51.016Z,77.72
2023-02-04T01:53:55.438Z,77.67
2023-02-04T01:56:58.707Z,77.71
2023-02-04T02:00:01.949Z,77.44
2023-02-04T02:03:15.283Z,77.36
2023-02-04T02:06:19.710Z,77.22
2023-02-04T02:09:23.850Z,76.96
2023-02-04T02:12:27.108Z,76.87
2023-02-04T02:15:30.387Z,77.03
2023-02-04T02:18:33.834Z,76.82
2023-02-04T02:21:43.828Z,76.87
2023-02-04T02:24:47.075Z,76.88
2023-02-04T02:27:50.501Z,76.88
2023-02-04T02:30:53.888Z,77.03
2023-02-04T02:33:57.367Z,76.87
2023-02-04T02:37:02.190Z,76.76
2023-02-04T02:40:07.067Z,76.67
2023-02-04T02:43:16.382Z,76.75
2023-02-04T02:46:19.741Z,76.88
2023-02-04T02:49:23.579Z,76.87
2023-02-04T02:52:26.918Z,76.73
2023-02-04T02:55:30.713Z,76.94
2023-02-04T02:58:36.479Z,76.73
2023-02-04T03:01:40.285Z,76.75
2023-02-04T03:04:48.518Z,76.84
2023-02-04T03:07:52.328Z,76.80
2023-02-04T03:10:55.876Z,76.71
2023-02-04T03:14:04.007Z,76.78
2023-02-04T03:17:10.219Z,76.63
2023-02-04T03:20:15.615Z,76.66
2023-02-04T03:23:20.311Z,76.74
2023-02-04T03:26:25.797Z,76.70
2023-02-04T03:29:29.920Z,76.82
2023-02-04T03:32:33.359Z,76.77
2023-02-04T03:35:36.576Z,76.73
2023-02-04T03:38:39.846Z,76.57
2023-02-04T03:41:43.376Z,76.53
2023-02-04T03:44:46.613Z,76.41
2023-02-04T03:47:49.760Z,76.34
2023-02-04T03:50:53.011Z,76.09
2023-02-04T03:53:56.254Z,76.13
2023-02-04T03:56:59.582Z,75.97
2023-02-04T04:00:02.858Z,75.91
2023-02-04T04:03:14.966Z,75.83
2023-02-04T04:06:18.459Z,75.75
2023-02-04T04:09:21.983Z,75.72
2023-02-04T04:12:25.478Z,75.57
2023-02-04T04:15:28.836Z,75.67
2023-02-04T04:18:33.061Z,75.27
2023-02-04T04:21:36.261Z,75.30
2023-02-04T04:24:39.476Z,75.18
2023-02-04T04:27:42.742Z,75.20
2023-02-04T04:30:46.035Z,75.14
2023-02-04T04:33:49.240Z,75.17
2023-02-04T04:36:52.445Z,75.07
2023-02-04T04:39:55.749Z,75.06
2023-02-04T04:42:58.975Z,74.99
2023-02-04T04:46:02.153Z,74.82
2023-02-04T04:49:05.318Z,74.98
2023-02-04T04:52:08.542Z,74.98
2023-02-04T04:55:11.769Z,74.75
2023-02-04T04:58:14.976Z,74.76
2023-02-04T05:01:19.139Z,74.69
2023-02-04T05:04:22.536Z,74.44
2023-02-04T05:07:25.953Z,74.25
2023-02-04T05:10:29.332Z,74.36
2023-02-04T05:13:32.783Z,74.29
2023-02-04T05:16:36.122Z,73.99
2023-02-04T05:19:39.510Z,73.97
2023-02-04T05:22:42.841Z,74.08
2023-02-04T05:25:46.152Z,73.93
2023-02-04T05:28:49.536Z,74.02
2023-02-04T05:31:52.937Z,73.93
2023-02-04T05:34:56.279Z,73.70
2023-02-04T05:37:59.703Z,73.60
2023-02-04T05:41:03.047Z,73.47
2023-02-04T05:44:06.429Z,73.44
2023-02-04T05:47:09.800Z,73.64
2023-02-04T05:50:13.455Z,73.66
2023-02-04T05:53:30.574Z,73.44
2023-02-04T05:56:34.004Z,73.32
2023-02-04T05:59:37.344Z,73.09
2023-02-04T06:02:40.649Z,73.04
2023-02-04T06:05:44.379Z,73.14
2023-02-04T06:08:47.782Z,72.85
2023-02-04T06:11:51.180Z,73.04
2023-02-04T06:14:54.571Z,73.10
2023-02-04T06:17:58.581Z,72.96
2023-02-04T06:21:04.764Z,73.01
2023-02-04T06:24:08.143Z,73.14
2023-02-04T06:27:11.637Z,72.95
2023-02-04T06:30:16.281Z,72.86
2023-02-04T06:33:19.685Z,72.69
2023-02-04T06:36:22.979Z,72.71
2023-02-04T06:39:26.437Z,72.45
2023-02-04T06:50:00.068Z,72.57
2023-02-04T06:53:03.479Z,72.74
2023-02-04T06:56:06.980Z,72.51
2023-02-04T06:59:11.202Z,72.37
2023-02-04T07:02:14.507Z,72.26
2023-02-04T07:05:17.993Z,72.04
2023-02-04T07:08:24.037Z,72.05
2023-02-04T07:11:27.230Z,72.04
2023-02-04T07:14:30.433Z,72.13
2023-02-04T07:17:33.685Z,72.01
2023-02-04T07:20:36.996Z,72.10
2023-02-04T07:23:40.281Z,72.12
2023-02-04T07:26:43.598Z,71.90
2023-02-04T07:29:46.990Z,71.91
2023-02-04T07:32:50.299Z,71.96
2023-02-04T07:35:53.525Z,71.96
2023-02-04T07:38:56.693Z,72.04
2023-02-04T07:41:59.918Z,72.01
2023-02-04T07:45:08.787Z,71.86
2023-02-04T07:48:12.074Z,71.62
2023-02-04T07:51:15.397Z,71.61
2023-02-04T07:54:18.711Z,71.68
2023-02-04T07:57:21.917Z,71.56
2023-02-04T08:00:25.361Z,71.58
2023-02-04T08:03:28.659Z,71.60
2023-02-04T08:06:31.902Z,71.41
2023-02-04T08:09:35.123Z,71.24
2023-02-04T08:12:38.468Z,71.17
2023-02-04T08:15:41.855Z,71.12
2023-02-04T08:18:47.830Z,71.27
2023-02-04T08:21:51.253Z,71.12
2023-02-04T08:24:54.554Z,71.23
2023-02-04T08:27:57.832Z,71.05
2023-02-04T08:31:01.179Z,71.30
2023-02-04T08:34:05.895Z,71.04
2023-02-04T08:37:09.066Z,71.03
2023-02-04T08:40:12.523Z,70.77
2023-02-04T08:43:15.763Z,70.85
2023-02-04T08:46:19.140Z,70.84
2023-02-04T08:49:22.444Z,70.75
2023-02-04T08:52:25.699Z,70.57
2023-02-04T08:55:28.923Z,70.67
2023-02-04T08:58:32.340Z,70.45
2023-02-04T09:01:35.582Z,70.41
2023-02-04T09:04:39.009Z,70.44
2023-02-04T09:07:42.267Z,70.24
2023-02-04T09:10:45.522Z,70.35
2023-02-04T09:13:48.769Z,70.15
2023-02-04T09:16:52.000Z,69.94
2023-02-04T09:19:55.169Z,69.61
2023-02-04T09:22:58.396Z,69.62
2023-02-04T09:26:01.641Z,69.49
2023-02-04T09:29:05.047Z,69.36
2023-02-04T09:32:08.370Z,69.20
2023-02-04T09:35:11.635Z,69.00
2023-02-04T09:38:15.046Z,68.84
2023-02-04T09:41:18.506Z,68.75
2023-02-04T09:44:32.163Z,69.19
2023-02-04T09:47:36.578Z,68.95
2023-02-04T09:50:40.002Z,68.73
2023-02-04T09:53:43.554Z,68.64
2023-02-04T09:56:48.401Z,68.26
2023-02-04T09:59:53.842Z,68.03
2023-02-04T10:03:02.822Z,67.88
2023-02-04T10:06:08.770Z,67.46
2023-02-04T10:09:12.969Z,67.44
2023-02-04T10:12:16.537Z,67.41
2023-02-04T10:15:20.893Z,67.23
2023-02-04T10:18:28.921Z,66.84
2023-02-04T10:21:36.888Z,66.75
2023-02-04T10:24:40.119Z,66.85
2023-02-04T10:27:52.208Z,66.71
2023-02-04T10:30:55.542Z,66.66
2023-02-04T10:34:19.959Z,66.35
2023-02-04T10:37:23.249Z,65.96
2023-02-04T10:40:36.541Z,66.00
2023-02-04T10:43:39.845Z,66.01
2023-02-04T10:46:43.213Z,65.92
2023-02-04T10:50:06.262Z,65.60
2023-02-04T10:53:30.093Z,65.46
2023-02-04T10:56:33.418Z,65.51
2023-02-04T10:59:37.117Z,65.49
2023-02-04T11:02:44.898Z,65.27
2023-02-04T11:05:48.236Z,65.07
2023-02-04T11:08:53.689Z,64.76
2023-02-04T11:11:58.329Z,64.46
2023-02-04T11:15:01.575Z,64.56
2023-02-04T11:18:11.371Z,64.47
2023-02-04T11:21:36.363Z,64.65
2023-02-04T11:24:39.681Z,64.33
2023-02-04T11:27:43.955Z,63.94
2023-02-04T11:30:58.769Z,63.35
2023-02-04T11:34:18.642Z,63.05
2023-02-04T11:37:34.163Z,62.97
2023-02-04T11:40:38.665Z,63.18
2023-02-04T11:43:41.932Z,62.64
2023-02-04T11:46:51.564Z,62.66
2023-02-04T11:50:04.504Z,61.99
2023-02-04T11:53:11.629Z,62.35
2023-02-04T11:56:19.239Z,62.20
2023-02-04T11:59:22.546Z,62.36
2023-02-04T12:02:26.531Z,61.87
2023-02-04T12:05:41.909Z,62.00
2023-02-04T12:08:45.166Z,61.63
2023-02-04T12:12:02.826Z,61.73
2023-02-04T12:15:16.394Z,61.75
2023-02-04T12:18:19.579Z,61.69
2023-02-04T12:21:23.684Z,61.68
2023-02-04T12:24:27.342Z,61.62
2023-02-04T12:27:30.550Z,61.91
2023-02-04T12:30:33.741Z,62.08
2023-02-04T12:33:36.975Z,61.83
2023-02-04T12:36:40.402Z,61.74
2023-02-04T12:39:43.596Z,61.73
2023-02-04T12:42:46.902Z,61.95
2023-02-04T12:45:50.198Z,61.90
2023-02-04T12:48:53.541Z,62.00
2023-02-04T12:51:59.263Z,61.61
2023-02-04T12:55:04.995Z,61.62
2023-02-04T12:58:08.537Z,61.76
2023-02-04T13:01:11.854Z,61.69
2023-02-04T13:04:15.084Z,61.77
2023-02-04T13:07:18.448Z,61.45
2023-02-04T13:10:23.989Z,61.65
2023-02-04T13:13:27.178Z,61.90
2023-02-04T13:16:30.365Z,61.91
2023-02-04T13:19:34.166Z,62.00
2023-02-04T13:22:37.396Z,62.04
2023-02-04T13:25:40.945Z,61.83
2023-02-04T13:28:44.095Z,61.78
2023-02-04T13:31:47.283Z,61.73
2023-02-04T13:34:50.586Z,61.98
2023-02-04T13:37:55.694Z,61.91
2023-02-04T13:40:59.687Z,61.95
2023-02-04T13:44:04.322Z,62.00
2023-02-04T13:47:07.628Z,62.19
2023-02-04T13:50:10.894Z,62.08
2023-02-04T13:53:14.085Z,62.39
2023-02-04T13:56:17.361Z,62.49
2023-02-04T13:59:21.103Z,62.37
2023-02-04T14:02:25.318Z,62.48
2023-02-04T14:05:28.660Z,62.65
2023-02-04T14:08:31.992Z,62.88
2023-02-04T14:11:35.553Z,62.89
2023-02-04T14:14:38.805Z,62.89
2023-02-04T14:17:42.057Z,63.01
2023-02-04T14:20:45.399Z,63.31
2023-02-04T14:23:48.766Z,63.22
2023-02-04T14:26:52.181Z,63.21
2023-02-04T14:29:55.440Z,63.21
2023-02-04T14:32:58.999Z,63.32
2023-02-04T14:36:02.160Z,63.23
2023-02-04T14:39:05.596Z,63.34
2023-02-04T14:42:08.867Z,63.51
2023-02-04T14:45:13.780Z,63.69
2023-02-04T14:48:17.180Z,63.81
2023-02-04T14:51:20.425Z,63.93
2023-02-04T14:54:24.021Z,64.27
2023-02-04T14:57:27.222Z,64.45
2023-02-04T15:00:30.657Z,64.53
2023-02-04T15:03:33.989Z,64.57
2023-02-04T15:06:37.875Z,64.85
2023-02-04T15:09:42.556Z,64.90
2023-02-04T15:12:45.839Z,65.00
2023-02-04T15:15:49.096Z,64.98
2023-02-04T15:18:52.596Z,64.85
2023-02-04T15:21:55.815Z,64.86
2023-02-04T15:24:59.140Z,64.80
2023-02-04T15:28:02.422Z,64.80
2023-02-04T15:31:05.942Z,64.56
2023-02-04T15:34:09.159Z,64.67
2023-02-04T15:37:12.488Z,64.52
2023-02-04T15:40:15.747Z,64.51
2023-02-04T15:43:18.957Z,64.31
2023-02-04T15:46:22.275Z,64.22
2023-02-04T15:49:25.564Z,64.53
2023-02-04T15:52:29.437Z,64.40
2023-02-04T15:55:32.864Z,64.49
2023-02-04T15:58:36.898Z,64.49
2023-02-04T16:01:40.155Z,64.32
2023-02-04T16:04:45.448Z,64.49
2023-02-04T16:07:48.985Z,64.48
2023-02-04T16:10:54.183Z,64.48
2023-02-04T16:13:58.751Z,64.47
2023-02-04T16:17:01.951Z,64.65
2023-02-04T16:20:06.422Z,64.91
2023-02-04T16:23:09.637Z,65.12
2023-02-04T16:26:13.418Z,65.10
2023-02-04T16:29:17.436Z,65.27
2023-02-04T16:32:21.054Z,65.36
2023-02-04T16:35:24.319Z,65.38
2023-02-04T16:38:28.739Z,65.43
2023-02-04T16:41:32.034Z,65.58
2023-02-04T16:44:37.395Z,65.83
2023-02-04T16:47:40.732Z,65.81
2023-02-04T16:50:44.204Z,65.89
2023-02-04T16:53:47.535Z,65.99
2023-02-04T16:56:50.980Z,66.19
2023-02-04T16:59:54.179Z,66.21
2023-02-04T17:02:58.135Z,66.20
2023-02-04T17:06:01.656Z,66.36
2023-02-04T17:09:04.935Z,66.46
2023-02-04T17:12:08.264Z,66.36
2023-02-04T17:15:11.515Z,66.58
2023-02-04T17:18:14.704Z,66.42
2023-02-04T17:21:18.515Z,66.53
2023-02-04T17:24:22.252Z,66.46
2023-02-04T17:27:26.211Z,66.75
2023-02-04T17:30:30.423Z,66.80
2023-02-04T17:33:37.706Z,66.77
2023-02-04T17:36:40.967Z,66.55
2023-02-04T17:39:44.829Z,66.85
2023-02-04T17:42:49.074Z,66.85
2023-02-04T17:45:52.633Z,66.88
2023-02-04T17:48:59.307Z,66.87
2023-02-04T17:52:03.505Z,66.88
2023-02-04T17:55:31.257Z,66.91
2023-02-04T17:58:36.355Z,66.94
2023-02-04T18:01:42.891Z,66.83
2023-02-04T18:04:46.530Z,66.84
2023-02-04T18:07:58.955Z,66.49
2023-02-04T18:11:02.171Z,66.51
2023-02-04T18:14:24.548Z,66.37
2023-02-04T18:17:28.613Z,66.34
2023-02-04T18:20:32.644Z,66.24
2023-02-04T18:23:36.200Z,66.38
2023-02-04T18:26:49.907Z,66.20
2023-02-04T18:29:55.750Z,66.03
2023-02-04T18:32:59.815Z,66.29
2023-02-04T18:36:03.122Z,66.05
2023-02-04T18:39:19.088Z,65.90
2023-02-04T18:42:25.830Z,65.73
2023-02-04T18:45:31.892Z,65.86
2023-02-04T18:49:00.863Z,65.86
2023-02-04T18:52:18.974Z,66.01
2023-02-04T18:55:37.711Z,65.72
2023-02-04T18:58:42.843Z,65.89
2023-02-04T19:01:48.104Z,65.66
2023-02-04T19:04:53.381Z,65.79
2023-02-04T19:08:04.463Z,65.94
2023-02-04T19:11:25.280Z,66.03
2023-02-04T19:14:40.211Z,66.48
2023-02-04T19:17:43.409Z,66.71
2023-02-04T19:20:50.765Z,66.79
2023-02-04T19:24:23.759Z,66.96
2023-02-04T19:27:31.951Z,66.90
2023-02-04T19:30:54.043Z,66.92
2023-02-04T19:33:57.476Z,66.83
2023-02-04T19:37:00.769Z,66.65
2023-02-04T19:40:24.289Z,66.72
2023-02-04T19:43:40.017Z,66.75
2023-02-04T19:46:44.050Z,66.81
2023-02-04T19:49:47.322Z,66.87
2023-02-04T19:53:12.229Z,66.67
2023-02-04T19:56:33.572Z,66.95
2023-02-04T19:59:36.838Z,66.86
2023-02-04T20:02:40.463Z,66.71
2023-02-04T20:05:44.293Z,66.64
2023-02-04T20:08:54.567Z,66.49
2023-02-04T20:12:06.108Z,66.26
2023-02-04T20:15:20.200Z,66.36
2023-02-04T20:18:28.296Z,66.32
2023-02-04T20:21:32.478Z,66.32
2023-02-04T20:24:37.978Z,66.32
2023-02-04T20:27:41.822Z,66.10
2023-02-04T20:30:46.342Z,66.14
2023-02-04T20:33:59.453Z,66.42
2023-02-04T20:37:02.871Z,66.39
2023-02-04T20:40:18.832Z,66.21
2023-02-04T20:43:24.188Z,66.27
2023-02-04T20:46:27.663Z,66.17
2023-02-04T20:49:40.868Z,66.14
2023-02-04T20:52:45.619Z,65.87
2023-02-04T20:55:51.886Z,65.71
2023-02-04T20:59:33.719Z,65.40
2023-02-04T21:02:38.917Z,65.09
2023-02-04T21:05:42.291Z,65.20
2023-02-04T21:08:47.970Z,65.25
2023-02-04T21:11:54.300Z,65.22
2023-02-04T21:14:57.544Z,65.37
2023-02-04T21:18:00.915Z,65.36
2023-02-04T21:21:07.393Z,65.60
2023-02-04T21:24:10.811Z,65.42
2023-02-04T21:27:15.248Z,65.13
2023-02-04T21:30:18.895Z,64.96
2023-02-04T21:33:22.222Z,64.83
2023-02-04T21:36:27.904Z,64.79
2023-02-04T21:39:31.213Z,64.70
2023-02-04T21:42:34.507Z,64.86
2023-02-04T21:45:39.729Z,64.86
2023-02-04T21:48:44.239Z,64.88
2023-02-04T21:51:47.595Z,64.54
2023-02-04T21:54:51.127Z,64.76
2023-02-04T21:57:54.437Z,64.54
2023-02-04T22:00:57.739Z,64.55
2023-02-04T22:04:01.380Z,64.44
2023-02-04T22:07:04.903Z,64.45
2023-02-04T22:10:12.200Z,64.44
2023-02-04T22:13:21.299Z,64.63
2023-02-04T22:16:24.622Z,64.82
2023-02-04T22:19:27.969Z,64.69
2023-02-04T22:22:31.340Z,64.73
2023-02-04T22:25:34.938Z,64.74
2023-02-04T22:28:41.683Z,64.42
2023-02-04T22:31:45.024Z,64.54
2023-02-04T22:35:15.162Z,64.40
2023-02-04T22:38:20.233Z,64.45
2023-02-04T22:41:23.673Z,64.60
2023-02-04T22:44:27.300Z,64.54
2023-02-04T22:47:30.902Z,64.48
2023-02-04T22:50:34.242Z,64.54
2023-02-04T22:53:37.503Z,64.54
2023-02-04T22:56:40.828Z,64.76
2023-02-04T22:59:44.180Z,64.89
2023-02-04T23:02:47.594Z,65.03
2023-02-04T23:05:51.078Z,64.96
2023-02-04T23:08:54.482Z,65.05
2023-02-04T23:11:58.584Z,65.15
2023-02-04T23:15:02.764Z,65.16
2023-02-04T23:18:06.120Z,65.44
2023-02-04T23:21:10.324Z,65.17
2023-02-04T23:24:13.650Z,65.45
2023-02-04T23:27:17.134Z,65.60
2023-02-04T23:30:20.628Z,65.47
2023-02-04T23:33:24.251Z,65.75
2023-02-04T23:36:27.514Z,65.59
2023-02-04T23:39:31.107Z,65.72
2023-02-04T23:42:34.463Z,65.78
2023-02-04T23:45:38.030Z,65.58
2023-02-04T23:48:41.325Z,65.75
2023-02-04T23:51:44.739Z,65.86
2023-02-04T23:54:48.108Z,65.89
2023-02-04T23:57:51.928Z,65.74
